sensor_id;sensor_type;location;lat;lon;timestamp;P1;durP1;ratioP1;P2;durP2;ratioP2
22634;SDS011;11484;50.858;4.384;2022-08-19T00:01:17;30.02;;;23.20;;
22634;SDS011;11484;50.858;4.384;2022-08-19T00:03:43;28.73;;;23.10;;
22634;SDS011;11484;50.858;4.384;2022-08-19T00:06:09;27.50;;;22.45;;
22634;SDS011;11484;50.858;4.384;2022-08-19T00:08:36;27.10;;;21.35;;
22634;SDS011;11484;50.858;4.384;2022-08-19T00:11:02;28.45;;;23.15;;
22634;SDS011;11484;50.858;4.384;2022-08-19T00:13:28;28.33;;;23.52;;
22634;SDS011;11484;50.858;4.384;2022-08-19T00:15:55;25.58;;;21.58;;
22634;SDS011;11484;50.858;4.384;2022-08-19T00:18:21;28.73;;;22.65;;
22634;SDS011;11484;50.858;4.384;2022-08-19T00:20:47;35.63;;;26.38;;
22634;SDS011;11484;50.858;4.384;2022-08-19T00:23:13;39.00;;;28.33;;
22634;SDS011;11484;50.858;4.384;2022-08-19T00:25:41;39.60;;;30.35;;
22634;SDS011;11484;50.858;4.384;2022-08-19T00:28:06;38.75;;;29.00;;
22634;SDS011;11484;50.858;4.384;2022-08-19T00:30:32;38.75;;;28.60;;
22634;SDS011;11484;50.858;4.384;2022-08-19T00:32:58;45.72;;;31.83;;
22634;SDS011;11484;50.858;4.384;2022-08-19T00:35:25;47.80;;;32.25;;
22634;SDS011;11484;50.858;4.384;2022-08-19T00:37:52;47.13;;;32.47;;
22634;SDS011;11484;50.858;4.384;2022-08-19T00:40:19;47.75;;;32.03;;
22634;SDS011;11484;50.858;4.384;2022-08-19T00:42:46;46.55;;;33.08;;
22634;SDS011;11484;50.858;4.384;2022-08-19T00:45:13;48.22;;;34.00;;
22634;SDS011;11484;50.858;4.384;2022-08-19T00:47:42;47.63;;;33.58;;
22634;SDS011;11484;50.858;4.384;2022-08-19T00:50:11;48.78;;;34.35;;
22634;SDS011;11484;50.858;4.384;2022-08-19T00:52:43;52.90;;;36.05;;
22634;SDS011;11484;50.858;4.384;2022-08-19T00:55:13;48.50;;;34.55;;
22634;SDS011;11484;50.858;4.384;2022-08-19T00:57:46;54.70;;;36.75;;
22634;SDS011;11484;50.858;4.384;2022-08-19T01:00:16;52.80;;;35.15;;
22634;SDS011;11484;50.858;4.384;2022-08-19T01:02:43;54.40;;;36.05;;
22634;SDS011;11484;50.858;4.384;2022-08-19T01:05:11;50.35;;;35.35;;
22634;SDS011;11484;50.858;4.384;2022-08-19T01:07:47;53.28;;;36.83;;
22634;SDS011;11484;50.858;4.384;2022-08-19T01:10:17;49.60;;;34.72;;
22634;SDS011;11484;50.858;4.384;2022-08-19T01:12:47;47.50;;;33.47;;
22634;SDS011;11484;50.858;4.384;2022-08-19T01:15:14;50.70;;;35.33;;
22634;SDS011;11484;50.858;4.384;2022-08-19T01:17:43;50.33;;;35.28;;
22634;SDS011;11484;50.858;4.384;2022-08-19T01:20:11;51.63;;;34.88;;
22634;SDS011;11484;50.858;4.384;2022-08-19T01:22:44;53.08;;;35.30;;
22634;SDS011;11484;50.858;4.384;2022-08-19T01:25:13;46.35;;;33.05;;
22634;SDS011;11484;50.858;4.384;2022-08-19T01:27:44;42.17;;;29.77;;
22634;SDS011;11484;50.858;4.384;2022-08-19T01:30:14;42.20;;;31.40;;
22634;SDS011;11484;50.858;4.384;2022-08-19T01:32:42;40.80;;;29.03;;
22634;SDS011;11484;50.858;4.384;2022-08-19T01:35:09;37.53;;;26.88;;
22634;SDS011;11484;50.858;4.384;2022-08-19T01:37:43;38.63;;;27.08;;
22634;SDS011;11484;50.858;4.384;2022-08-19T01:40:16;40.85;;;27.80;;
22634;SDS011;11484;50.858;4.384;2022-08-19T01:42:45;39.22;;;28.95;;
22634;SDS011;11484;50.858;4.384;2022-08-19T01:45:15;39.60;;;28.70;;
22634;SDS011;11484;50.858;4.384;2022-08-19T01:47:42;37.05;;;27.77;;
22634;SDS011;11484;50.858;4.384;2022-08-19T01:50:09;36.22;;;26.75;;
22634;SDS011;11484;50.858;4.384;2022-08-19T01:52:39;33.53;;;24.75;;
22634;SDS011;11484;50.858;4.384;2022-08-19T01:55:07;32.58;;;23.35;;
22634;SDS011;11484;50.858;4.384;2022-08-19T01:57:35;34.15;;;24.42;;
22634;SDS011;11484;50.858;4.384;2022-08-19T02:00:04;34.15;;;24.52;;
22634;SDS011;11484;50.858;4.384;2022-08-19T02:02:33;33.03;;;24.35;;
22634;SDS011;11484;50.858;4.384;2022-08-19T02:04:59;34.78;;;25.30;;
22634;SDS011;11484;50.858;4.384;2022-08-19T02:07:26;32.80;;;25.30;;
22634;SDS011;11484;50.858;4.384;2022-08-19T02:09:54;32.75;;;25.05;;
22634;SDS011;11484;50.858;4.384;2022-08-19T02:12:20;33.50;;;24.85;;
22634;SDS011;11484;50.858;4.384;2022-08-19T02:14:46;31.75;;;23.30;;
22634;SDS011;11484;50.858;4.384;2022-08-19T02:17:12;33.85;;;23.20;;
22634;SDS011;11484;50.858;4.384;2022-08-19T02:19:38;24.25;;;18.90;;
22634;SDS011;11484;50.858;4.384;2022-08-19T02:22:04;25.17;;;18.60;;
22634;SDS011;11484;50.858;4.384;2022-08-19T02:24:30;25.40;;;17.95;;
22634;SDS011;11484;50.858;4.384;2022-08-19T02:26:56;23.13;;;18.02;;
22634;SDS011;11484;50.858;4.384;2022-08-19T02:29:22;23.85;;;18.08;;
22634;SDS011;11484;50.858;4.384;2022-08-19T02:31:48;28.48;;;20.40;;
22634;SDS011;11484;50.858;4.384;2022-08-19T02:34:13;29.30;;;23.15;;
22634;SDS011;11484;50.858;4.384;2022-08-19T02:36:39;35.78;;;25.00;;
22634;SDS011;11484;50.858;4.384;2022-08-19T02:39:05;31.35;;;25.30;;
22634;SDS011;11484;50.858;4.384;2022-08-19T02:41:31;32.13;;;24.00;;
22634;SDS011;11484;50.858;4.384;2022-08-19T02:43:59;32.58;;;24.38;;
22634;SDS011;11484;50.858;4.384;2022-08-19T02:46:28;28.02;;;20.67;;
22634;SDS011;11484;50.858;4.384;2022-08-19T02:49:05;25.00;;;19.05;;
22634;SDS011;11484;50.858;4.384;2022-08-19T02:51:36;28.95;;;20.65;;
22634;SDS011;11484;50.858;4.384;2022-08-19T02:54:05;28.08;;;20.38;;
22634;SDS011;11484;50.858;4.384;2022-08-19T02:56:36;28.33;;;20.55;;
22634;SDS011;11484;50.858;4.384;2022-08-19T02:59:03;29.27;;;20.88;;
22634;SDS011;11484;50.858;4.384;2022-08-19T03:01:33;32.63;;;22.17;;
22634;SDS011;11484;50.858;4.384;2022-08-19T03:04:00;30.08;;;20.38;;
22634;SDS011;11484;50.858;4.384;2022-08-19T03:06:28;27.13;;;20.63;;
22634;SDS011;11484;50.858;4.384;2022-08-19T03:08:55;26.13;;;17.73;;
22634;SDS011;11484;50.858;4.384;2022-08-19T03:11:22;25.40;;;18.77;;
22634;SDS011;11484;50.858;4.384;2022-08-19T03:13:51;28.50;;;18.77;;
22634;SDS011;11484;50.858;4.384;2022-08-19T03:16:19;29.13;;;19.27;;
22634;SDS011;11484;50.858;4.384;2022-08-19T03:18:46;25.63;;;18.60;;
22634;SDS011;11484;50.858;4.384;2022-08-19T03:21:23;27.48;;;18.80;;
22634;SDS011;11484;50.858;4.384;2022-08-19T03:23:53;27.73;;;19.75;;
22634;SDS011;11484;50.858;4.384;2022-08-19T03:26:19;30.60;;;20.33;;
22634;SDS011;11484;50.858;4.384;2022-08-19T03:28:45;27.90;;;20.42;;
22634;SDS011;11484;50.858;4.384;2022-08-19T03:31:17;30.15;;;20.50;;
22634;SDS011;11484;50.858;4.384;2022-08-19T03:33:45;29.23;;;20.58;;
22634;SDS011;11484;50.858;4.384;2022-08-19T03:36:18;30.10;;;20.65;;
22634;SDS011;11484;50.858;4.384;2022-08-19T03:38:48;29.70;;;20.52;;
22634;SDS011;11484;50.858;4.384;2022-08-19T03:41:26;27.88;;;19.98;;
22634;SDS011;11484;50.858;4.384;2022-08-19T03:43:55;28.30;;;19.80;;
22634;SDS011;11484;50.858;4.384;2022-08-19T03:46:23;28.38;;;19.20;;
22634;SDS011;11484;50.858;4.384;2022-08-19T03:48:52;28.88;;;18.83;;
22634;SDS011;11484;50.858;4.384;2022-08-19T03:51:24;26.65;;;17.90;;
22634;SDS011;11484;50.858;4.384;2022-08-19T03:53:53;24.40;;;18.52;;
22634;SDS011;11484;50.858;4.384;2022-08-19T03:56:19;30.42;;;19.58;;
22634;SDS011;11484;50.858;4.384;2022-08-19T03:58:45;31.23;;;18.83;;
22634;SDS011;11484;50.858;4.384;2022-08-19T04:01:12;27.17;;;18.88;;
22634;SDS011;11484;50.858;4.384;2022-08-19T04:03:41;29.90;;;19.58;;
22634;SDS011;11484;50.858;4.384;2022-08-19T04:08:38;30.50;;;21.15;;
22634;SDS011;11484;50.858;4.384;2022-08-19T04:11:11;31.33;;;20.67;;
22634;SDS011;11484;50.858;4.384;2022-08-19T04:13:38;28.70;;;20.67;;
22634;SDS011;11484;50.858;4.384;2022-08-19T04:16:04;29.42;;;19.48;;
22634;SDS011;11484;50.858;4.384;2022-08-19T04:18:31;30.98;;;20.10;;
22634;SDS011;11484;50.858;4.384;2022-08-19T04:20:58;28.52;;;19.60;;
22634;SDS011;11484;50.858;4.384;2022-08-19T04:23:25;30.45;;;20.20;;
22634;SDS011;11484;50.858;4.384;2022-08-19T04:25:52;29.27;;;20.20;;
22634;SDS011;11484;50.858;4.384;2022-08-19T04:28:18;31.60;;;19.40;;
22634;SDS011;11484;50.858;4.384;2022-08-19T04:30:51;26.77;;;17.92;;
22634;SDS011;11484;50.858;4.384;2022-08-19T04:33:19;30.25;;;18.83;;
22634;SDS011;11484;50.858;4.384;2022-08-19T04:35:48;27.35;;;19.13;;
22634;SDS011;11484;50.858;4.384;2022-08-19T04:38:17;29.90;;;18.75;;
22634;SDS011;11484;50.858;4.384;2022-08-19T04:40:46;30.88;;;19.30;;
22634;SDS011;11484;50.858;4.384;2022-08-19T04:43:32;27.42;;;18.25;;
22634;SDS011;11484;50.858;4.384;2022-08-19T04:46:04;27.58;;;17.50;;
22634;SDS011;11484;50.858;4.384;2022-08-19T04:48:35;24.77;;;16.55;;
22634;SDS011;11484;50.858;4.384;2022-08-19T04:51:01;25.05;;;17.70;;
22634;SDS011;11484;50.858;4.384;2022-08-19T04:53:34;26.63;;;16.17;;
22634;SDS011;11484;50.858;4.384;2022-08-19T04:56:03;30.48;;;15.98;;
22634;SDS011;11484;50.858;4.384;2022-08-19T04:58:32;38.28;;;24.95;;
22634;SDS011;11484;50.858;4.384;2022-08-19T05:00:59;25.38;;;14.45;;
22634;SDS011;11484;50.858;4.384;2022-08-19T05:03:27;26.38;;;15.10;;
22634;SDS011;11484;50.858;4.384;2022-08-19T05:05:58;25.27;;;14.23;;
22634;SDS011;11484;50.858;4.384;2022-08-19T05:08:33;22.90;;;13.15;;
22634;SDS011;11484;50.858;4.384;2022-08-19T05:11:01;24.38;;;13.48;;
22634;SDS011;11484;50.858;4.384;2022-08-19T05:13:32;20.15;;;12.75;;
22634;SDS011;11484;50.858;4.384;2022-08-19T05:15:57;29.98;;;13.55;;
22634;SDS011;11484;50.858;4.384;2022-08-19T05:18:25;19.42;;;12.23;;
22634;SDS011;11484;50.858;4.384;2022-08-19T05:21:24;21.73;;;12.13;;
22634;SDS011;11484;50.858;4.384;2022-08-19T05:24:09;17.42;;;12.05;;
22634;SDS011;11484;50.858;4.384;2022-08-19T05:26:36;21.30;;;12.15;;
22634;SDS011;11484;50.858;4.384;2022-08-19T05:29:05;22.35;;;12.15;;
22634;SDS011;11484;50.858;4.384;2022-08-19T05:31:32;21.23;;;12.07;;
22634;SDS011;11484;50.858;4.384;2022-08-19T05:33:58;18.90;;;11.32;;
22634;SDS011;11484;50.858;4.384;2022-08-19T05:36:28;21.33;;;12.23;;
22634;SDS011;11484;50.858;4.384;2022-08-19T05:38:59;22.30;;;12.23;;
22634;SDS011;11484;50.858;4.384;2022-08-19T05:41:25;22.77;;;11.93;;
22634;SDS011;11484;50.858;4.384;2022-08-19T05:44:00;16.98;;;10.57;;
22634;SDS011;11484;50.858;4.384;2022-08-19T05:46:27;17.77;;;10.32;;
22634;SDS011;11484;50.858;4.384;2022-08-19T05:48:53;18.63;;;10.85;;
22634;SDS011;11484;50.858;4.384;2022-08-19T05:51:21;19.40;;;10.82;;
22634;SDS011;11484;50.858;4.384;2022-08-19T05:53:47;18.10;;;10.60;;
22634;SDS011;11484;50.858;4.384;2022-08-19T05:56:21;19.58;;;11.27;;
22634;SDS011;11484;50.858;4.384;2022-08-19T05:58:46;23.33;;;12.00;;
22634;SDS011;11484;50.858;4.384;2022-08-19T06:01:14;21.58;;;10.88;;
22634;SDS011;11484;50.858;4.384;2022-08-19T06:03:41;18.88;;;11.32;;
22634;SDS011;11484;50.858;4.384;2022-08-19T06:06:09;20.42;;;10.63;;
22634;SDS011;11484;50.858;4.384;2022-08-19T06:08:37;24.45;;;10.15;;
22634;SDS011;11484;50.858;4.384;2022-08-19T06:13:52;20.90;;;9.60;;
22634;SDS011;11484;50.858;4.384;2022-08-19T06:16:19;16.40;;;9.88;;
22634;SDS011;11484;50.858;4.384;2022-08-19T06:19:09;14.68;;;9.00;;
22634;SDS011;11484;50.858;4.384;2022-08-19T06:21:38;19.20;;;9.38;;
22634;SDS011;11484;50.858;4.384;2022-08-19T06:24:06;18.63;;;10.00;;
22634;SDS011;11484;50.858;4.384;2022-08-19T06:26:34;16.35;;;9.00;;
22634;SDS011;11484;50.858;4.384;2022-08-19T06:29:02;12.02;;;8.77;;
22634;SDS011;11484;50.858;4.384;2022-08-19T06:31:32;15.55;;;9.23;;
22634;SDS011;11484;50.858;4.384;2022-08-19T06:34:02;15.20;;;8.13;;
22634;SDS011;11484;50.858;4.384;2022-08-19T06:36:31;12.48;;;8.45;;
22634;SDS011;11484;50.858;4.384;2022-08-19T06:39:06;15.00;;;8.38;;
22634;SDS011;11484;50.858;4.384;2022-08-19T06:41:39;22.60;;;8.70;;
22634;SDS011;11484;50.858;4.384;2022-08-19T06:44:06;14.80;;;7.53;;
22634;SDS011;11484;50.858;4.384;2022-08-19T06:46:33;16.10;;;8.38;;
22634;SDS011;11484;50.858;4.384;2022-08-19T06:48:58;14.50;;;7.68;;
22634;SDS011;11484;50.858;4.384;2022-08-19T06:51:25;13.35;;;7.40;;
22634;SDS011;11484;50.858;4.384;2022-08-19T06:53:52;16.05;;;8.68;;
22634;SDS011;11484;50.858;4.384;2022-08-19T06:56:20;25.00;;;9.02;;
22634;SDS011;11484;50.858;4.384;2022-08-19T06:58:57;27.90;;;8.68;;
22634;SDS011;11484;50.858;4.384;2022-08-19T07:01:23;26.35;;;8.73;;
22634;SDS011;11484;50.858;4.384;2022-08-19T07:03:49;16.02;;;7.90;;
22634;SDS011;11484;50.858;4.384;2022-08-19T07:06:15;15.40;;;7.97;;
22634;SDS011;11484;50.858;4.384;2022-08-19T07:08:47;10.45;;;7.32;;
22634;SDS011;11484;50.858;4.384;2022-08-19T07:11:14;13.65;;;7.75;;
22634;SDS011;11484;50.858;4.384;2022-08-19T07:13:42;16.20;;;7.77;;
22634;SDS011;11484;50.858;4.384;2022-08-19T07:16:14;14.93;;;8.20;;
22634;SDS011;11484;50.858;4.384;2022-08-19T07:18:46;13.45;;;7.13;;
22634;SDS011;11484;50.858;4.384;2022-08-19T07:21:15;17.77;;;8.43;;
22634;SDS011;11484;50.858;4.384;2022-08-19T07:23:49;14.13;;;8.23;;
22634;SDS011;11484;50.858;4.384;2022-08-19T07:26:24;11.15;;;7.43;;
22634;SDS011;11484;50.858;4.384;2022-08-19T07:28:52;14.73;;;7.35;;
22634;SDS011;11484;50.858;4.384;2022-08-19T07:31:20;11.50;;;6.90;;
22634;SDS011;11484;50.858;4.384;2022-08-19T07:33:48;16.92;;;7.38;;
22634;SDS011;11484;50.858;4.384;2022-08-19T07:36:17;14.98;;;7.05;;
22634;SDS011;11484;50.858;4.384;2022-08-19T07:38:45;12.98;;;6.57;;
22634;SDS011;11484;50.858;4.384;2022-08-19T07:41:14;9.60;;;6.43;;
22634;SDS011;11484;50.858;4.384;2022-08-19T07:43:44;8.93;;;6.00;;
22634;SDS011;11484;50.858;4.384;2022-08-19T07:46:11;10.05;;;5.68;;
22634;SDS011;11484;50.858;4.384;2022-08-19T07:48:40;8.95;;;4.70;;
22634;SDS011;11484;50.858;4.384;2022-08-19T07:51:07;6.88;;;5.10;;
22634;SDS011;11484;50.858;4.384;2022-08-19T07:53:35;11.15;;;6.03;;
22634;SDS011;11484;50.858;4.384;2022-08-19T07:56:02;7.07;;;4.97;;
22634;SDS011;11484;50.858;4.384;2022-08-19T07:58:29;12.88;;;5.85;;
22634;SDS011;11484;50.858;4.384;2022-08-19T08:00:57;11.20;;;5.60;;
22634;SDS011;11484;50.858;4.384;2022-08-19T08:03:24;8.25;;;5.47;;
22634;SDS011;11484;50.858;4.384;2022-08-19T08:06:12;12.13;;;5.95;;
22634;SDS011;11484;50.858;4.384;2022-08-19T08:09:03;9.23;;;5.25;;
22634;SDS011;11484;50.858;4.384;2022-08-19T08:11:51;11.20;;;5.53;;
22634;SDS011;11484;50.858;4.384;2022-08-19T08:14:21;9.52;;;5.63;;
22634;SDS011;11484;50.858;4.384;2022-08-19T08:16:52;9.32;;;6.30;;
22634;SDS011;11484;50.858;4.384;2022-08-19T08:19:23;10.55;;;6.10;;
22634;SDS011;11484;50.858;4.384;2022-08-19T08:21:51;8.57;;;5.03;;
22634;SDS011;11484;50.858;4.384;2022-08-19T08:24:20;8.85;;;5.30;;
22634;SDS011;11484;50.858;4.384;2022-08-19T08:26:45;9.65;;;5.50;;
22634;SDS011;11484;50.858;4.384;2022-08-19T08:29:12;8.68;;;5.65;;
22634;SDS011;11484;50.858;4.384;2022-08-19T08:31:42;6.60;;;4.97;;
22634;SDS011;11484;50.858;4.384;2022-08-19T08:34:10;8.02;;;5.43;;
22634;SDS011;11484;50.858;4.384;2022-08-19T08:36:38;7.65;;;4.97;;
22634;SDS011;11484;50.858;4.384;2022-08-19T08:39:10;8.57;;;4.75;;
22634;SDS011;11484;50.858;4.384;2022-08-19T08:45:13;8.07;;;5.10;;
22634;SDS011;11484;50.858;4.384;2022-08-19T08:47:23;12.15;;;7.60;;
22634;SDS011;11484;50.858;4.384;2022-08-19T08:49:54;7.80;;;5.18;;
22634;SDS011;11484;50.858;4.384;2022-08-19T08:52:32;8.13;;;5.15;;
22634;SDS011;11484;50.858;4.384;2022-08-19T09:00:21;10.73;;;6.43;;
22634;SDS011;11484;50.858;4.384;2022-08-19T09:02:53;9.77;;;5.80;;
22634;SDS011;11484;50.858;4.384;2022-08-19T09:05:32;10.50;;;5.13;;
22634;SDS011;11484;50.858;4.384;2022-08-19T09:17:13;10.02;;;5.85;;
22634;SDS011;11484;50.858;4.384;2022-08-19T09:19:49;10.55;;;5.10;;
22634;SDS011;11484;50.858;4.384;2022-08-19T09:24:56;7.45;;;5.50;;
22634;SDS011;11484;50.858;4.384;2022-08-19T09:27:22;8.35;;;5.00;;
22634;SDS011;11484;50.858;4.384;2022-08-19T09:29:50;8.43;;;4.72;;
22634;SDS011;11484;50.858;4.384;2022-08-19T09:32:16;8.55;;;4.97;;
22634;SDS011;11484;50.858;4.384;2022-08-19T09:34:43;8.57;;;5.03;;
22634;SDS011;11484;50.858;4.384;2022-08-19T09:37:09;10.13;;;4.57;;
22634;SDS011;11484;50.858;4.384;2022-08-19T09:39:35;7.75;;;4.32;;
22634;SDS011;11484;50.858;4.384;2022-08-19T09:42:00;7.55;;;4.80;;
22634;SDS011;11484;50.858;4.384;2022-08-19T09:44:28;7.47;;;4.78;;
22634;SDS011;11484;50.858;4.384;2022-08-19T09:46:55;7.78;;;5.38;;
22634;SDS011;11484;50.858;4.384;2022-08-19T09:49:21;9.57;;;5.03;;
22634;SDS011;11484;50.858;4.384;2022-08-19T09:51:51;8.45;;;4.85;;
22634;SDS011;11484;50.858;4.384;2022-08-19T09:54:18;6.97;;;5.05;;
22634;SDS011;11484;50.858;4.384;2022-08-19T09:56:44;9.77;;;4.88;;
22634;SDS011;11484;50.858;4.384;2022-08-19T09:59:10;10.10;;;4.78;;
22634;SDS011;11484;50.858;4.384;2022-08-19T10:01:37;7.07;;;4.30;;
22634;SDS011;11484;50.858;4.384;2022-08-19T10:04:03;8.10;;;4.90;;
22634;SDS011;11484;50.858;4.384;2022-08-19T10:06:39;8.75;;;4.32;;
22634;SDS011;11484;50.858;4.384;2022-08-19T10:09:07;8.05;;;4.90;;
22634;SDS011;11484;50.858;4.384;2022-08-19T10:11:35;6.63;;;4.40;;
22634;SDS011;11484;50.858;4.384;2022-08-19T10:14:02;7.88;;;4.70;;
22634;SDS011;11484;50.858;4.384;2022-08-19T10:16:30;8.25;;;5.18;;
22634;SDS011;11484;50.858;4.384;2022-08-19T10:18:56;9.57;;;5.80;;
22634;SDS011;11484;50.858;4.384;2022-08-19T10:21:27;6.25;;;4.07;;
22634;SDS011;11484;50.858;4.384;2022-08-19T10:23:55;6.88;;;3.45;;
22634;SDS011;11484;50.858;4.384;2022-08-19T10:26:27;7.78;;;3.92;;
22634;SDS011;11484;50.858;4.384;2022-08-19T10:28:54;7.65;;;3.83;;
22634;SDS011;11484;50.858;4.384;2022-08-19T10:31:25;7.40;;;4.10;;
22634;SDS011;11484;50.858;4.384;2022-08-19T10:33:54;6.60;;;4.43;;
22634;SDS011;11484;50.858;4.384;2022-08-19T10:36:24;7.47;;;5.00;;
22634;SDS011;11484;50.858;4.384;2022-08-19T10:38:57;8.65;;;5.90;;
22634;SDS011;11484;50.858;4.384;2022-08-19T10:41:26;8.00;;;4.35;;
22634;SDS011;11484;50.858;4.384;2022-08-19T10:43:55;8.05;;;4.97;;
22634;SDS011;11484;50.858;4.384;2022-08-19T10:46:23;8.55;;;5.00;;
22634;SDS011;11484;50.858;4.384;2022-08-19T10:48:50;8.65;;;5.25;;
22634;SDS011;11484;50.858;4.384;2022-08-19T10:51:16;7.97;;;5.35;;
22634;SDS011;11484;50.858;4.384;2022-08-19T10:54:01;9.55;;;5.93;;
22634;SDS011;11484;50.858;4.384;2022-08-19T10:56:28;13.02;;;6.30;;
22634;SDS011;11484;50.858;4.384;2022-08-19T10:59:25;10.10;;;5.90;;
22634;SDS011;11484;50.858;4.384;2022-08-19T11:01:53;8.27;;;5.93;;
22634;SDS011;11484;50.858;4.384;2022-08-19T11:04:23;8.40;;;5.95;;
22634;SDS011;11484;50.858;4.384;2022-08-19T11:06:49;7.35;;;5.40;;
22634;SDS011;11484;50.858;4.384;2022-08-19T11:09:15;7.50;;;5.40;;
22634;SDS011;11484;50.858;4.384;2022-08-19T11:11:43;9.18;;;5.90;;
22634;SDS011;11484;50.858;4.384;2022-08-19T11:14:13;9.27;;;5.90;;
22634;SDS011;11484;50.858;4.384;2022-08-19T11:16:40;8.65;;;5.80;;
22634;SDS011;11484;50.858;4.384;2022-08-19T11:19:09;8.43;;;5.78;;
22634;SDS011;11484;50.858;4.384;2022-08-19T11:21:39;7.25;;;5.20;;
22634;SDS011;11484;50.858;4.384;2022-08-19T11:24:09;8.68;;;5.03;;
22634;SDS011;11484;50.858;4.384;2022-08-19T11:26:37;4.90;;;3.95;;
22634;SDS011;11484;50.858;4.384;2022-08-19T11:29:04;7.18;;;5.10;;
22634;SDS011;11484;50.858;4.384;2022-08-19T11:31:32;6.63;;;4.15;;
22634;SDS011;11484;50.858;4.384;2022-08-19T11:34:01;9.02;;;5.72;;
22634;SDS011;11484;50.858;4.384;2022-08-19T11:36:29;12.93;;;9.45;;
22634;SDS011;11484;50.858;4.384;2022-08-19T11:38:57;10.50;;;8.13;;
22634;SDS011;11484;50.858;4.384;2022-08-19T11:41:23;9.30;;;7.90;;
22634;SDS011;11484;50.858;4.384;2022-08-19T11:43:50;12.73;;;8.43;;
22634;SDS011;11484;50.858;4.384;2022-08-19T11:46:19;11.50;;;8.45;;
22634;SDS011;11484;50.858;4.384;2022-08-19T11:48:46;8.95;;;7.53;;
22634;SDS011;11484;50.858;4.384;2022-08-19T11:51:14;8.85;;;7.65;;
22634;SDS011;11484;50.858;4.384;2022-08-19T11:53:43;10.10;;;7.75;;
22634;SDS011;11484;50.858;4.384;2022-08-19T11:56:10;9.88;;;8.25;;
22634;SDS011;11484;50.858;4.384;2022-08-19T11:58:38;11.32;;;7.00;;
22634;SDS011;11484;50.858;4.384;2022-08-19T12:01:05;12.32;;;7.13;;
22634;SDS011;11484;50.858;4.384;2022-08-19T12:03:35;9.63;;;6.63;;
22634;SDS011;11484;50.858;4.384;2022-08-19T12:06:05;11.82;;;7.03;;
22634;SDS011;11484;50.858;4.384;2022-08-19T12:10:57;9.25;;;6.70;;
22634;SDS011;11484;50.858;4.384;2022-08-19T12:13:25;6.93;;;5.43;;
22634;SDS011;11484;50.858;4.384;2022-08-19T12:15:54;8.60;;;5.97;;
22634;SDS011;11484;50.858;4.384;2022-08-19T12:18:19;7.75;;;5.32;;
22634;SDS011;11484;50.858;4.384;2022-08-19T12:20:45;7.47;;;5.60;;
22634;SDS011;11484;50.858;4.384;2022-08-19T12:23:13;8.63;;;5.38;;
22634;SDS011;11484;50.858;4.384;2022-08-19T12:25:46;9.32;;;7.20;;
22634;SDS011;11484;50.858;4.384;2022-08-19T12:28:20;14.10;;;11.50;;
22634;SDS011;11484;50.858;4.384;2022-08-19T12:30:48;6.45;;;4.78;;
22634;SDS011;11484;50.858;4.384;2022-08-19T12:33:18;9.32;;;4.43;;
22634;SDS011;11484;50.858;4.384;2022-08-19T12:35:48;5.40;;;3.80;;
22634;SDS011;11484;50.858;4.384;2022-08-19T12:38:15;5.70;;;4.05;;
22634;SDS011;11484;50.858;4.384;2022-08-19T12:40:41;7.13;;;3.97;;
22634;SDS011;11484;50.858;4.384;2022-08-19T12:43:10;6.45;;;3.38;;
22634;SDS011;11484;50.858;4.384;2022-08-19T12:45:36;6.43;;;3.40;;
22634;SDS011;11484;50.858;4.384;2022-08-19T12:48:02;4.72;;;3.25;;
22634;SDS011;11484;50.858;4.384;2022-08-19T12:50:29;7.70;;;4.10;;
22634;SDS011;11484;50.858;4.384;2022-08-19T12:52:56;5.00;;;3.30;;
22634;SDS011;11484;50.858;4.384;2022-08-19T12:55:22;5.45;;;2.95;;
22634;SDS011;11484;50.858;4.384;2022-08-19T12:57:49;4.57;;;2.97;;
22634;SDS011;11484;50.858;4.384;2022-08-19T13:00:16;4.95;;;2.90;;
22634;SDS011;11484;50.858;4.384;2022-08-19T13:02:46;4.28;;;2.60;;
22634;SDS011;11484;50.858;4.384;2022-08-19T13:05:16;5.13;;;2.38;;
22634;SDS011;11484;50.858;4.384;2022-08-19T13:07:48;5.88;;;2.55;;
22634;SDS011;11484;50.858;4.384;2022-08-19T13:10:17;4.30;;;2.50;;
22634;SDS011;11484;50.858;4.384;2022-08-19T13:12:45;4.70;;;2.40;;
22634;SDS011;11484;50.858;4.384;2022-08-19T13:15:13;3.40;;;2.50;;
22634;SDS011;11484;50.858;4.384;2022-08-19T13:17:40;3.08;;;2.13;;
22634;SDS011;11484;50.858;4.384;2022-08-19T13:20:08;4.45;;;2.50;;
22634;SDS011;11484;50.858;4.384;2022-08-19T13:23:02;4.15;;;2.20;;
22634;SDS011;11484;50.858;4.384;2022-08-19T13:25:28;5.97;;;2.90;;
22634;SDS011;11484;50.858;4.384;2022-08-19T13:27:54;3.78;;;2.85;;
22634;SDS011;11484;50.858;4.384;2022-08-19T13:30:21;4.75;;;2.40;;
22634;SDS011;11484;50.858;4.384;2022-08-19T13:33:05;3.35;;;2.00;;
22634;SDS011;11484;50.858;4.384;2022-08-19T13:35:44;7.90;;;3.00;;
22634;SDS011;11484;50.858;4.384;2022-08-19T13:38:19;2.95;;;2.33;;
22634;SDS011;11484;50.858;4.384;2022-08-19T13:40:46;5.57;;;2.10;;
22634;SDS011;11484;50.858;4.384;2022-08-19T13:43:15;5.35;;;2.00;;
22634;SDS011;11484;50.858;4.384;2022-08-19T13:45:42;6.47;;;2.42;;
22634;SDS011;11484;50.858;4.384;2022-08-19T13:48:08;5.95;;;3.47;;
22634;SDS011;11484;50.858;4.384;2022-08-19T13:50:42;12.18;;;2.92;;
22634;SDS011;11484;50.858;4.384;2022-08-19T13:53:10;21.20;;;4.88;;
22634;SDS011;11484;50.858;4.384;2022-08-19T13:55:40;8.77;;;2.88;;
22634;SDS011;11484;50.858;4.384;2022-08-19T13:58:07;20.25;;;4.32;;
22634;SDS011;11484;50.858;4.384;2022-08-19T14:00:34;3.90;;;2.33;;
22634;SDS011;11484;50.858;4.384;2022-08-19T14:03:05;4.35;;;2.75;;
22634;SDS011;11484;50.858;4.384;2022-08-19T14:05:31;6.85;;;2.30;;
22634;SDS011;11484;50.858;4.384;2022-08-19T14:07:58;3.33;;;2.03;;
22634;SDS011;11484;50.858;4.384;2022-08-19T14:10:25;4.22;;;2.25;;
22634;SDS011;11484;50.858;4.384;2022-08-19T14:12:55;6.82;;;3.00;;
22634;SDS011;11484;50.858;4.384;2022-08-19T14:15:23;9.35;;;2.53;;
22634;SDS011;11484;50.858;4.384;2022-08-19T14:17:49;6.75;;;2.15;;
22634;SDS011;11484;50.858;4.384;2022-08-19T14:20:15;2.83;;;2.50;;
22634;SDS011;11484;50.858;4.384;2022-08-19T14:22:42;5.20;;;2.50;;
22634;SDS011;11484;50.858;4.384;2022-08-19T14:25:09;4.97;;;2.55;;
22634;SDS011;11484;50.858;4.384;2022-08-19T14:27:40;6.32;;;2.25;;
22634;SDS011;11484;50.858;4.384;2022-08-19T14:30:07;7.47;;;2.45;;
22634;SDS011;11484;50.858;4.384;2022-08-19T14:32:35;5.25;;;3.03;;
22634;SDS011;11484;50.858;4.384;2022-08-19T14:35:02;5.40;;;2.50;;
22634;SDS011;11484;50.858;4.384;2022-08-19T14:37:29;9.30;;;1.90;;
22634;SDS011;11484;50.858;4.384;2022-08-19T14:39:55;1.92;;;1.30;;
22634;SDS011;11484;50.858;4.384;2022-08-19T14:42:21;5.13;;;1.48;;
22634;SDS011;11484;50.858;4.384;2022-08-19T14:44:46;2.22;;;1.73;;
22634;SDS011;11484;50.858;4.384;2022-08-19T14:47:12;2.72;;;1.80;;
22634;SDS011;11484;50.858;4.384;2022-08-19T14:49:38;4.55;;;1.92;;
22634;SDS011;11484;50.858;4.384;2022-08-19T14:52:04;3.88;;;1.90;;
22634;SDS011;11484;50.858;4.384;2022-08-19T14:54:30;3.53;;;2.55;;
22634;SDS011;11484;50.858;4.384;2022-08-19T14:56:56;5.03;;;2.47;;
22634;SDS011;11484;50.858;4.384;2022-08-19T14:59:22;3.97;;;2.30;;
22634;SDS011;11484;50.858;4.384;2022-08-19T15:01:48;2.72;;;1.60;;
22634;SDS011;11484;50.858;4.384;2022-08-19T15:04:13;2.38;;;1.65;;
22634;SDS011;11484;50.858;4.384;2022-08-19T15:06:39;3.22;;;1.00;;
22634;SDS011;11484;50.858;4.384;2022-08-19T15:09:07;1.40;;;0.98;;
22634;SDS011;11484;50.858;4.384;2022-08-19T15:11:33;5.22;;;1.50;;